createdAt,value
2018-11-05T00:00:55.078Z,13.20
2018-11-05T00:03:26.464Z,13.18
2018-11-05T00:05:58.081Z,13.15
2018-11-05T00:08:31.012Z,13.13
2018-11-05T00:11:02.265Z,13.08
2018-11-05T00:13:33.715Z,13.07
2018-11-05T00:16:05.110Z,13.07
2018-11-05T00:18:36.504Z,13.09
2018-11-05T00:21:08.070Z,13.07
2018-11-05T00:23:39.939Z,13.06
2018-11-05T00:26:12.070Z,13.07
2018-11-05T00:28:43.173Z,13.08
2018-11-05T00:31:15.570Z,13.06
2018-11-05T00:33:46.780Z,13.03
2018-11-05T00:36:18.342Z,12.99
2018-11-05T00:38:50.604Z,12.95
2018-11-05T00:41:22.174Z,12.92
2018-11-05T00:43:53.810Z,12.92
2018-11-05T00:46:25.879Z,12.92
2018-11-05T00:48:58.415Z,12.94
2018-11-05T00:51:30.684Z,12.93
2018-11-05T00:54:02.615Z,12.94
2018-11-05T00:56:35.093Z,12.93
2018-11-05T00:59:07.630Z,12.92
2018-11-05T01:01:39.259Z,12.92
2018-11-05T01:04:11.377Z,12.89
2018-11-05T01:06:43.213Z,12.84
2018-11-05T01:09:15.199Z,12.83
2018-11-05T01:11:46.776Z,12.83
2018-11-05T01:14:18.261Z,12.83
2018-11-05T01:16:50.217Z,12.78
2018-11-05T01:19:21.797Z,12.81
2018-11-05T01:21:53.368Z,12.83
2018-11-05T01:24:25.613Z,12.83
2018-11-05T01:26:57.255Z,12.87
2018-11-05T01:29:28.877Z,12.89
2018-11-05T01:32:00.872Z,12.87
2018-11-05T01:34:31.783Z,12.88
2018-11-05T01:37:03.698Z,12.91
2018-11-05T01:39:35.722Z,12.93
2018-11-05T01:42:07.418Z,12.92
2018-11-05T01:44:38.953Z,12.90
2018-11-05T01:47:11.114Z,12.89
2018-11-05T01:49:42.488Z,12.86
2018-11-05T01:52:14.315Z,12.87
2018-11-05T01:54:46.155Z,12.86
2018-11-05T01:57:18.129Z,12.85
2018-11-05T01:59:50.199Z,12.86
2018-11-05T02:02:22.047Z,12.86
2018-11-05T02:04:54.152Z,12.87
2018-11-05T02:07:26.345Z,12.89
2018-11-05T02:09:57.708Z,12.88
2018-11-05T02:12:29.474Z,12.85
2018-11-05T02:15:02.328Z,12.82
2018-11-05T02:17:34.039Z,12.78
2018-11-05T02:20:06.674Z,12.75
2018-11-05T02:22:38.605Z,12.74
2018-11-05T02:25:11.804Z,12.73
2018-11-05T02:27:43.733Z,12.73
2018-11-05T02:30:18.761Z,12.72
2018-11-05T02:32:50.247Z,12.75
2018-11-05T02:35:21.930Z,12.80
2018-11-05T02:37:53.622Z,12.81
2018-11-05T02:40:25.692Z,12.81
2018-11-05T02:42:57.283Z,12.85
2018-11-05T02:45:29.702Z,12.85
2018-11-05T02:48:01.193Z,12.83
2018-11-05T02:50:33.504Z,12.83
2018-11-05T02:53:04.947Z,12.81
2018-11-05T02:55:36.516Z,12.78
2018-11-05T02:58:08.132Z,12.77
2018-11-05T03:00:39.756Z,12.74
2018-11-05T03:03:11.720Z,12.70
2018-11-05T03:05:43.309Z,12.63
2018-11-05T03:08:14.957Z,12.60
2018-11-05T03:10:46.234Z,12.56
2018-11-05T03:13:18.093Z,12.50
2018-11-05T03:15:49.653Z,12.48
2018-11-05T03:18:20.589Z,12.45
2018-11-05T03:20:51.583Z,12.44
2018-11-05T03:23:23.321Z,12.44
2018-11-05T03:25:55.645Z,12.45
2018-11-05T03:28:27.297Z,12.43
2018-11-05T03:30:59.040Z,12.38
2018-11-05T03:33:30.633Z,12.35
2018-11-05T03:36:02.133Z,12.30
2018-11-05T03:38:33.541Z,12.27
2018-11-05T03:41:04.770Z,12.21
2018-11-05T03:43:36.543Z,12.16
2018-11-05T03:46:08.383Z,12.15
2018-11-05T03:48:40.224Z,12.12
2018-11-05T03:51:11.741Z,12.08
2018-11-05T03:53:43.942Z,12.05
2018-11-05T03:56:15.662Z,11.99
2018-11-05T03:58:47.108Z,11.94
2018-11-05T04:01:18.984Z,11.90
2018-11-05T04:03:50.606Z,11.84
2018-11-05T04:06:22.140Z,11.82
2018-11-05T04:08:53.839Z,11.79
2018-11-05T04:11:25.052Z,11.75
2018-11-05T04:13:57.306Z,11.73
2018-11-05T04:16:29.313Z,11.68
2018-11-05T04:19:00.616Z,11.63
2018-11-05T04:21:46.190Z,11.55
2018-11-05T04:24:17.829Z,11.46
2018-11-05T04:26:48.991Z,11.38
2018-11-05T04:29:20.828Z,11.25
2018-11-05T04:31:52.284Z,11.16
2018-11-05T04:34:23.600Z,11.09
2018-11-05T04:36:56.234Z,11.01
2018-11-05T04:39:27.562Z,10.92
2018-11-05T04:41:59.451Z,10.86
2018-11-05T04:44:30.888Z,10.80
2018-11-05T04:47:03.186Z,10.74
2018-11-05T04:49:35.121Z,10.68
2018-11-05T04:52:07.515Z,10.62
2018-11-05T04:54:39.425Z,9.41
2018-11-05T04:57:11.123Z,10.51
2018-11-05T04:59:43.080Z,10.49
2018-11-05T05:02:15.103Z,10.45
2018-11-05T05:04:46.903Z,10.42
2018-11-05T05:07:18.413Z,10.38
2018-11-05T05:09:49.796Z,10.35
2018-11-05T05:12:22.787Z,10.32
2018-11-05T05:14:53.921Z,9.64
2018-11-05T05:17:25.226Z,10.23
2018-11-05T05:19:57.612Z,10.18
2018-11-05T05:22:29.468Z,10.14
2018-11-05T05:25:01.433Z,9.47
2018-11-05T05:27:32.720Z,10.09
2018-11-05T05:30:05.898Z,10.06
2018-11-05T05:32:38.500Z,10.04
2018-11-05T05:35:10.247Z,10.02
2018-11-05T05:37:43.503Z,9.98
2018-11-05T05:40:16.111Z,9.94
2018-11-05T05:42:47.634Z,9.91
2018-11-05T05:45:19.425Z,9.87
2018-11-05T05:47:51.734Z,9.84
2018-11-05T05:50:23.291Z,9.82
2018-11-05T05:52:54.952Z,9.82
2018-11-05T05:55:27.613Z,9.83
2018-11-05T05:57:59.419Z,9.87
2018-11-05T06:00:31.668Z,9.88
2018-11-05T06:03:03.932Z,9.89
2018-11-05T06:05:35.027Z,9.25
2018-11-05T06:08:06.339Z,9.85
2018-11-05T06:10:38.887Z,9.88
2018-11-05T06:13:11.052Z,9.88
2018-11-05T06:15:43.042Z,9.89
2018-11-05T06:18:14.565Z,9.93
2018-11-05T06:20:45.591Z,9.96
2018-11-05T06:23:16.636Z,10.03
2018-11-05T06:25:47.835Z,10.04
2018-11-05T06:28:19.421Z,10.05
2018-11-05T06:30:51.872Z,10.09
2018-11-05T06:33:23.280Z,10.12
2018-11-05T06:35:55.191Z,10.16
2018-11-05T06:38:26.377Z,10.19
2018-11-05T06:40:58.185Z,10.21
2018-11-05T06:43:29.889Z,10.25
2018-11-05T06:46:00.986Z,10.23
2018-11-05T06:48:32.463Z,10.20
2018-11-05T06:51:03.529Z,10.19
2018-11-05T06:53:35.506Z,10.23
2018-11-05T06:56:07.657Z,10.28
2018-11-05T06:58:41.455Z,10.28
2018-11-05T07:01:12.623Z,10.27
2018-11-05T07:03:44.225Z,10.30
2018-11-05T07:06:15.614Z,10.34
2018-11-05T07:08:46.990Z,9.95
2018-11-05T07:11:18.862Z,10.37
2018-11-05T07:13:49.842Z,10.39
2018-11-05T07:16:21.234Z,10.43
2018-11-05T07:18:52.923Z,10.44
2018-11-05T07:21:24.368Z,10.45
2018-11-05T07:23:55.608Z,10.50
2018-11-05T07:26:26.658Z,10.56
2018-11-05T07:28:57.980Z,10.64
2018-11-05T07:31:29.486Z,10.73
2018-11-05T07:34:00.605Z,10.79
2018-11-05T07:36:32.685Z,10.87
2018-11-05T07:39:05.061Z,10.98
2018-11-05T07:41:36.533Z,11.12
2018-11-05T07:44:08.439Z,11.25
2018-11-05T07:46:40.048Z,11.39
2018-11-05T07:49:11.554Z,11.50
2018-11-05T07:51:43.523Z,11.55
2018-11-05T07:54:15.105Z,11.66
2018-11-05T07:56:46.704Z,11.69
2018-11-05T07:59:18.406Z,11.70
2018-11-05T08:01:49.777Z,11.66
2018-11-05T08:04:20.851Z,11.74
2018-11-05T08:08:16.030Z,11.70
2018-11-05T08:10:47.798Z,11.65
2018-11-05T08:13:19.613Z,11.71
2018-11-05T08:15:50.684Z,11.80
2018-11-05T08:18:22.534Z,11.91
2018-11-05T08:20:54.052Z,12.07
2018-11-05T08:23:26.577Z,12.12
2018-11-05T08:25:58.205Z,12.19
2018-11-05T08:28:29.844Z,12.27
2018-11-05T08:31:01.678Z,12.34
2018-11-05T08:33:33.732Z,12.47
2018-11-05T08:36:05.238Z,12.53
2018-11-05T08:38:36.530Z,12.57
2018-11-05T08:41:08.526Z,12.66
2018-11-05T08:43:39.557Z,12.71
2018-11-05T08:46:11.712Z,12.77
2018-11-05T08:48:43.419Z,12.86
2018-11-05T08:51:15.543Z,12.92
2018-11-05T08:53:47.642Z,12.90
2018-11-05T08:56:18.768Z,12.87
2018-11-05T08:58:49.827Z,12.83
2018-11-05T09:01:21.224Z,12.84
2018-11-05T09:03:53.872Z,12.03
2018-11-05T09:06:25.997Z,12.77
2018-11-05T09:08:57.790Z,12.72
2018-11-05T09:11:29.674Z,12.72
2018-11-05T09:14:01.230Z,12.72
2018-11-05T09:16:33.049Z,12.72
2018-11-05T09:19:04.479Z,12.75
2018-11-05T09:21:36.053Z,12.82
2018-11-05T09:24:08.099Z,12.80
2018-11-05T09:26:39.838Z,12.80
2018-11-05T09:29:11.727Z,12.87
2018-11-05T09:31:43.456Z,12.98
2018-11-05T09:34:15.104Z,12.62
2018-11-05T09:36:47.467Z,13.13
2018-11-05T09:39:19.025Z,13.17
2018-11-05T09:41:50.132Z,13.24
2018-11-05T09:44:22.183Z,13.23
2018-11-05T09:46:53.854Z,13.29
2018-11-05T09:49:25.679Z,13.37
2018-11-05T09:51:57.706Z,13.57
2018-11-05T09:54:30.504Z,13.67
2018-11-05T09:57:01.940Z,13.80
2018-11-05T09:59:33.249Z,13.92
2018-11-05T10:02:05.819Z,14.00
2018-11-05T10:04:37.217Z,14.02
2018-11-05T10:07:09.622Z,14.13
2018-11-05T10:09:41.218Z,14.15
2018-11-05T10:12:12.755Z,14.07
2018-11-05T10:14:44.363Z,14.00
2018-11-05T10:17:16.355Z,13.89
2018-11-05T10:19:47.705Z,13.84
2018-11-05T10:22:19.307Z,13.81
2018-11-05T10:24:51.400Z,13.80
2018-11-05T10:27:24.618Z,13.79
2018-11-05T10:29:56.376Z,13.75
2018-11-05T10:32:27.812Z,13.70
2018-11-05T10:34:59.517Z,13.79
2018-11-05T10:37:32.577Z,13.93
2018-11-05T10:40:03.670Z,14.08
2018-11-05T10:42:35.325Z,14.23
2018-11-05T10:45:07.013Z,14.33
2018-11-05T10:47:38.521Z,14.45
2018-11-05T10:50:10.353Z,14.53
2018-11-05T10:52:42.939Z,14.58
2018-11-05T10:55:14.295Z,14.55
2018-11-05T10:57:45.670Z,14.55
2018-11-05T11:00:22.628Z,14.52
2018-11-05T11:02:58.197Z,14.46
2018-11-05T11:05:30.098Z,14.52
2018-11-05T11:08:02.735Z,14.65
2018-11-05T11:10:35.141Z,14.79
2018-11-05T11:13:07.199Z,14.92
2018-11-05T11:15:38.726Z,15.04
2018-11-05T11:18:11.499Z,15.08
2018-11-05T11:20:42.466Z,15.20
2018-11-05T11:23:13.807Z,15.29
2018-11-05T11:25:45.023Z,15.30
2018-11-05T11:28:16.444Z,15.31
2018-11-05T11:30:48.419Z,15.25
2018-11-05T11:33:19.430Z,15.26
2018-11-05T11:35:50.784Z,15.20
2018-11-05T11:38:22.802Z,15.19
2018-11-05T11:40:55.243Z,15.13
2018-11-05T11:43:26.773Z,15.10
2018-11-05T11:45:57.814Z,15.04
2018-11-05T11:48:29.132Z,15.06
2018-11-05T11:51:01.273Z,15.11
2018-11-05T11:53:32.862Z,15.23
2018-11-05T11:56:04.188Z,15.31
2018-11-05T11:58:35.815Z,15.38
2018-11-05T12:01:07.139Z,15.42
2018-11-05T12:03:38.450Z,15.46
2018-11-05T12:06:09.777Z,15.48
2018-11-05T12:08:41.351Z,15.50
2018-11-05T12:11:13.224Z,15.56
2018-11-05T12:13:44.606Z,15.51
2018-11-05T12:16:15.957Z,15.49
2018-11-05T12:18:48.397Z,15.52
2018-11-05T12:21:20.140Z,15.56
2018-11-05T12:23:51.892Z,15.62
2018-11-05T12:26:23.056Z,15.61
2018-11-05T12:28:55.116Z,15.54
2018-11-05T12:31:28.074Z,15.48
2018-11-05T12:33:59.719Z,15.43
2018-11-05T12:36:31.802Z,15.43
2018-11-05T12:39:04.046Z,15.46
2018-11-05T12:41:35.394Z,15.49
2018-11-05T12:44:07.431Z,14.94
2018-11-05T12:46:39.577Z,15.35
2018-11-05T12:49:11.240Z,15.53
2018-11-05T12:51:42.161Z,15.47
2018-11-05T12:54:13.151Z,15.44
2018-11-05T12:56:44.610Z,15.47
2018-11-05T12:59:15.796Z,15.50
2018-11-05T13:01:47.176Z,15.59
2018-11-05T13:04:18.743Z,15.60
2018-11-05T13:06:50.797Z,15.62
2018-11-05T13:09:22.147Z,15.59
2018-11-05T13:11:53.367Z,15.59
2018-11-05T13:14:24.444Z,15.56
2018-11-05T13:16:56.192Z,15.50
2018-11-05T13:19:27.546Z,15.46
2018-11-05T13:21:58.626Z,15.41
2018-11-05T13:24:29.731Z,15.37
2018-11-05T13:27:00.842Z,15.33
2018-11-05T13:29:32.422Z,15.31
2018-11-05T13:32:03.724Z,15.29
2018-11-05T13:34:35.550Z,15.26
2018-11-05T13:37:07.972Z,15.26
2018-11-05T13:39:39.030Z,15.26
2018-11-05T13:42:10.400Z,15.25
2018-11-05T13:44:41.433Z,15.24
2018-11-05T13:47:13.709Z,15.29
2018-11-05T13:49:45.150Z,15.31
2018-11-05T13:52:16.258Z,15.30
2018-11-05T13:54:47.697Z,15.29
2018-11-05T13:57:19.154Z,15.30
2018-11-05T13:59:50.223Z,15.32
2018-11-05T14:02:21.594Z,15.35
2018-11-05T14:04:52.739Z,15.40
2018-11-05T14:07:23.714Z,15.46
2018-11-05T14:09:55.226Z,15.50
2018-11-05T14:12:26.963Z,15.45
2018-11-05T14:14:58.316Z,15.44
2018-11-05T14:17:31.650Z,15.47
2018-11-05T14:20:02.716Z,15.42
2018-11-05T14:22:34.066Z,15.39
2018-11-05T14:25:06.164Z,15.43
2018-11-05T14:27:37.681Z,15.49
2018-11-05T14:30:10.654Z,15.52
2018-11-05T14:32:43.133Z,15.49
2018-11-05T14:35:15.146Z,15.51
2018-11-05T14:37:46.740Z,15.55
2018-11-05T14:40:19.218Z,15.56
2018-11-05T14:42:50.507Z,15.56
2018-11-05T14:45:22.467Z,15.60
2018-11-05T14:47:54.110Z,15.56
2018-11-05T14:50:25.187Z,15.48
2018-11-05T14:52:56.566Z,15.48
2018-11-05T14:55:28.355Z,15.48
2018-11-05T14:58:00.082Z,15.45
2018-11-05T15:00:31.954Z,15.40
2018-11-05T15:03:03.258Z,15.34
2018-11-05T15:05:34.600Z,15.24
2018-11-05T15:08:10.001Z,15.14
2018-11-05T15:10:45.035Z,15.00
2018-11-05T15:13:18.461Z,14.90
2018-11-05T15:15:50.619Z,14.76
2018-11-05T15:18:22.034Z,14.69
2018-11-05T15:20:54.102Z,14.64
2018-11-05T15:23:26.323Z,14.57
2018-11-05T15:25:57.655Z,14.45
2018-11-05T15:28:29.127Z,14.37
2018-11-05T15:31:00.559Z,14.26
2018-11-05T15:33:32.343Z,14.14
2018-11-05T15:36:03.776Z,14.03
2018-11-05T15:38:34.984Z,13.94
2018-11-05T15:41:06.637Z,13.83
2018-11-05T15:43:38.454Z,13.73
2018-11-05T15:46:09.998Z,13.62
2018-11-05T15:48:41.127Z,13.52
2018-11-05T15:51:12.790Z,13.44
2018-11-05T15:53:44.080Z,13.36
2018-11-05T15:56:15.225Z,13.27
2018-11-05T15:58:46.779Z,13.17
2018-11-05T16:01:18.011Z,13.07
2018-11-05T16:03:49.672Z,12.98
2018-11-05T16:06:22.376Z,12.87
2018-11-05T16:08:53.571Z,12.79
2018-11-05T16:11:24.879Z,12.71
2018-11-05T16:13:56.636Z,12.66
2018-11-05T16:16:27.994Z,12.61
2018-11-05T16:18:59.318Z,12.53
2018-11-05T16:21:31.433Z,12.46
2018-11-05T16:24:04.676Z,12.42
2018-11-05T16:26:36.518Z,12.38
2018-11-05T16:29:07.701Z,12.30
2018-11-05T16:31:40.290Z,12.24
2018-11-05T16:34:12.509Z,12.19
2018-11-05T16:36:43.576Z,12.13
2018-11-05T16:39:15.507Z,12.07
2018-11-05T16:41:48.165Z,12.01
2018-11-05T16:44:19.910Z,11.97
2018-11-05T16:46:51.147Z,11.91
2018-11-05T16:49:23.028Z,11.86
2018-11-05T16:51:57.085Z,11.81
2018-11-05T16:54:28.950Z,11.77
2018-11-05T16:57:01.713Z,11.72
2018-11-05T16:59:37.080Z,11.66
2018-11-05T17:02:16.947Z,11.62
2018-11-05T17:04:48.432Z,11.59
2018-11-05T17:07:20.238Z,11.55
2018-11-05T17:09:51.721Z,11.49
2018-11-05T17:12:24.228Z,11.44
2018-11-05T17:14:58.185Z,11.41
2018-11-05T17:17:29.372Z,11.37
2018-11-05T17:20:01.067Z,11.34
2018-11-05T17:22:32.165Z,11.32
2018-11-05T17:25:04.159Z,11.25
2018-11-05T17:27:35.466Z,11.22
2018-11-05T17:30:10.434Z,11.20
2018-11-05T17:32:42.408Z,10.50
2018-11-05T17:35:15.221Z,11.15
2018-11-05T17:37:48.065Z,11.13
2018-11-05T17:40:24.108Z,11.11
2018-11-05T17:42:55.639Z,11.09
2018-11-05T17:45:28.546Z,11.06
2018-11-05T17:47:59.893Z,11.02
2018-11-05T17:50:33.170Z,11.01
2018-11-05T17:53:05.603Z,10.98
2018-11-05T17:55:41.328Z,10.92
2018-11-05T17:58:14.876Z,10.87
2018-11-05T18:00:49.838Z,10.84
2018-11-05T18:03:30.473Z,10.82
2018-11-05T18:06:10.366Z,10.80
2018-11-05T18:08:46.950Z,10.79
2018-11-05T18:11:23.801Z,10.77
2018-11-05T18:14:08.153Z,10.13
2018-11-05T18:16:50.795Z,10.71
2018-11-05T18:19:22.525Z,10.68
2018-11-05T18:21:56.475Z,10.66
2018-11-05T18:24:27.669Z,10.63
2018-11-05T18:26:59.604Z,10.60
2018-11-05T18:29:30.759Z,10.57
2018-11-05T18:32:02.696Z,10.52
2018-11-05T18:34:36.336Z,10.49
2018-11-05T18:37:08.969Z,10.45
2018-11-05T18:39:41.740Z,10.42
2018-11-05T18:42:14.365Z,10.39
2018-11-05T18:44:46.420Z,10.37
2018-11-05T18:47:18.124Z,10.35
2018-11-05T18:49:49.203Z,10.35
2018-11-05T18:52:20.868Z,10.34
2018-11-05T18:54:52.234Z,10.34
2018-11-05T18:57:23.684Z,10.33
2018-11-05T18:59:55.244Z,9.68
2018-11-05T19:02:31.148Z,9.03
2018-11-05T19:05:03.507Z,10.25
2018-11-05T19:07:35.223Z,10.22
2018-11-05T19:10:08.189Z,10.21
2018-11-05T19:12:40.631Z,10.22
2018-11-05T19:15:13.775Z,10.19
2018-11-05T19:17:46.404Z,10.18
2018-11-05T19:20:17.883Z,10.17
2018-11-05T19:22:49.653Z,10.13
2018-11-05T19:25:21.177Z,10.12
2018-11-05T19:27:53.597Z,10.10
2018-11-05T19:30:26.762Z,10.07
2018-11-05T19:32:58.899Z,10.04
2018-11-05T19:35:32.118Z,10.02
2018-11-05T19:38:04.031Z,9.84
2018-11-05T19:40:35.044Z,9.88
2018-11-05T19:43:31.648Z,9.85
2018-11-05T19:50:48.844Z,9.83
2018-11-05T19:53:20.136Z,9.10
2018-11-05T19:55:51.659Z,9.72
2018-11-05T19:58:23.098Z,9.71
2018-11-05T20:00:55.976Z,9.62
2018-11-05T20:03:27.519Z,9.58
2018-11-05T20:06:00.238Z,9.58
2018-11-05T20:08:32.033Z,9.58
2018-11-05T20:11:03.720Z,9.57
2018-11-05T20:13:36.133Z,9.54
2018-11-05T20:16:08.154Z,9.51
2018-11-05T20:18:41.018Z,9.49
2018-11-05T20:21:12.263Z,9.48
2018-11-05T20:23:43.371Z,9.44
2018-11-05T20:26:15.367Z,9.42
2018-11-05T20:28:46.591Z,9.41
2018-11-05T20:31:18.636Z,9.41
2018-11-05T20:33:50.248Z,9.38
2018-11-05T20:36:23.051Z,9.33
2018-11-05T20:38:54.179Z,9.28
2018-11-05T20:41:26.486Z,9.28
2018-11-05T20:43:59.727Z,9.25
2018-11-05T20:46:30.918Z,9.18
2018-11-05T20:49:02.444Z,9.13
2018-11-05T20:51:35.283Z,9.12
2018-11-05T20:54:07.687Z,9.08
2018-11-05T20:56:39.631Z,9.03
2018-11-05T20:59:11.508Z,8.96
2018-11-05T21:01:43.725Z,8.93
2018-11-05T21:04:15.425Z,8.90
2018-11-05T21:06:47.236Z,8.89
2018-11-05T21:09:18.905Z,8.87
2018-11-05T21:11:50.686Z,8.85
2018-11-05T21:14:23.983Z,8.83
2018-11-05T21:16:56.043Z,8.81
2018-11-05T21:19:27.607Z,8.78
2018-11-05T21:21:59.312Z,8.78
2018-11-05T21:24:32.655Z,8.84
2018-11-05T21:27:04.490Z,8.91
2018-11-05T21:29:36.118Z,8.99
2018-11-05T21:32:09.134Z,9.09
2018-11-05T21:34:40.572Z,9.17
2018-11-05T21:37:12.477Z,9.24
2018-11-05T21:39:45.247Z,9.31
2018-11-05T21:42:17.280Z,9.29
2018-11-05T21:44:49.590Z,9.30
2018-11-05T21:47:21.629Z,9.31
2018-11-05T21:49:53.363Z,9.35
2018-11-05T21:52:25.894Z,9.38
2018-11-05T21:54:58.673Z,9.42
2018-11-05T21:57:30.265Z,9.46
2018-11-05T22:00:02.041Z,9.48
2018-11-05T22:02:39.132Z,9.47
2018-11-05T22:05:11.011Z,9.48
2018-11-05T22:07:42.591Z,9.47
2018-11-05T22:10:14.943Z,9.43
2018-11-05T22:12:47.463Z,9.40
2018-11-05T22:15:19.037Z,9.37
2018-11-05T22:17:50.218Z,9.33
2018-11-05T22:20:21.655Z,9.28
2018-11-05T22:22:53.745Z,9.27
2018-11-05T22:25:25.153Z,9.29
2018-11-05T22:27:57.842Z,9.23
2018-11-05T22:30:29.408Z,9.18
2018-11-05T22:33:00.995Z,9.12
2018-11-05T22:35:33.558Z,9.04
2018-11-05T22:38:05.603Z,8.93
2018-11-05T22:40:36.920Z,8.55
2018-11-05T22:43:08.488Z,8.72
2018-11-05T22:45:40.113Z,8.60
2018-11-05T22:48:12.969Z,8.51
2018-11-05T22:50:44.621Z,8.45
2018-11-05T22:53:16.631Z,8.31
2018-11-05T22:55:48.405Z,7.59
2018-11-05T22:58:20.154Z,8.19
2018-11-05T23:00:58.532Z,8.13
2018-11-05T23:03:32.139Z,8.08
2018-11-05T23:06:03.723Z,8.00
2018-11-05T23:08:37.085Z,7.95
2018-11-05T23:11:12.057Z,7.94
2018-11-05T23:13:44.126Z,7.93
2018-11-05T23:16:16.126Z,7.88
2018-11-05T23:18:47.786Z,7.83
2018-11-05T23:21:19.399Z,7.78
2018-11-05T23:23:50.862Z,7.72
2018-11-05T23:26:23.787Z,7.68
2018-11-05T23:28:57.178Z,7.66
2018-11-05T23:31:28.843Z,7.63
2018-11-05T23:34:00.813Z,7.65
2018-11-05T23:36:32.779Z,7.63
2018-11-05T23:39:05.974Z,7.62
2018-11-05T23:41:38.777Z,7.58
2018-11-05T23:44:10.311Z,7.57
2018-11-05T23:46:41.633Z,7.56
2018-11-05T23:49:13.335Z,7.55
2018-11-05T23:51:44.691Z,7.56
2018-11-05T23:54:16.127Z,7.57
2018-11-05T23:56:48.109Z,7.56
2018-11-05T23:59:20.425Z,7.55
